sensor_id;sensor_type;location;lat;lon;timestamp;pressure;altitude;pressure_sealevel;temperature;humidity
50696;BME280;36665;51.786;21.594;2023-03-25T00:07:32;95992.55;;;9.93;69.37
50696;BME280;36665;51.786;21.594;2023-03-25T00:15:55;95964.28;;;9.85;69.40
50696;BME280;36665;51.786;21.594;2023-03-25T00:24:21;95926.75;;;9.76;69.44
50696;BME280;36665;51.786;21.594;2023-03-25T00:32:45;95924.38;;;9.75;69.36
50696;BME280;36665;51.786;21.594;2023-03-25T00:41:23;95916.05;;;9.73;69.57
50696;BME280;36665;51.786;21.594;2023-03-25T00:49:49;95904.44;;;9.70;69.83
50696;BME280;36665;51.786;21.594;2023-03-25T00:58:13;95892.68;;;9.67;69.64
50696;BME280;36665;51.786;21.594;2023-03-25T01:06:39;95840.41;;;9.54;69.75
50696;BME280;36665;51.786;21.594;2023-03-25T01:15:08;95797.80;;;9.43;69.70
50696;BME280;36665;51.786;21.594;2023-03-25T01:23:32;95791.35;;;9.42;69.89
50696;BME280;36665;51.786;21.594;2023-03-25T01:31:56;95783.77;;;9.39;69.89
50696;BME280;36665;51.786;21.594;2023-03-25T01:40:21;95778.77;;;9.37;69.87
50696;BME280;36665;51.786;21.594;2023-03-25T01:48:48;95782.16;;;9.38;69.88
50696;BME280;36665;51.786;21.594;2023-03-25T01:57:13;95760.85;;;9.34;69.95
50696;BME280;36665;51.786;21.594;2023-03-25T02:06:03;95733.48;;;9.26;70.18
50696;BME280;36665;51.786;21.594;2023-03-25T02:14:31;95706.29;;;9.17;70.02
50696;BME280;36665;51.786;21.594;2023-03-25T02:41:04;95520.54;;;8.69;70.03
50696;BME280;36665;51.786;21.594;2023-03-25T02:49:42;95446.09;;;8.50;70.02
50696;BME280;36665;51.786;21.594;2023-03-25T02:58:10;95373.84;;;8.32;70.06
50696;BME280;36665;51.786;21.594;2023-03-25T03:06:39;95319.83;;;8.18;70.11
50696;BME280;36665;51.786;21.594;2023-03-25T03:23:37;95219.95;;;7.92;70.08
50696;BME280;36665;51.786;21.594;2023-03-25T03:32:15;95191.78;;;7.84;70.11
50696;BME280;36665;51.786;21.594;2023-03-25T03:40:44;95141.70;;;7.71;70.19
50696;BME280;36665;51.786;21.594;2023-03-25T03:49:15;95096.45;;;7.59;70.11
50696;BME280;36665;51.786;21.594;2023-03-25T03:57:44;95057.26;;;7.49;70.02
50696;BME280;36665;51.786;21.594;2023-03-25T04:06:26;95009.63;;;7.36;70.12
50696;BME280;36665;51.786;21.594;2023-03-25T04:15:00;94972.02;;;7.27;70.25
50696;BME280;36665;51.786;21.594;2023-03-25T04:23:26;94913.86;;;7.11;70.18
50696;BME280;36665;51.786;21.594;2023-03-25T04:31:51;94857.34;;;6.97;70.06
50696;BME280;36665;51.786;21.594;2023-03-25T04:40:18;94804.46;;;6.84;70.08
50696;BME280;36665;51.786;21.594;2023-03-25T04:48:41;94750.75;;;6.70;70.05
50696;BME280;36665;51.786;21.594;2023-03-25T04:57:07;94716.79;;;6.60;70.08
50696;BME280;36665;51.786;21.594;2023-03-25T05:05:33;94680.81;;;6.52;70.18
50696;BME280;36665;51.786;21.594;2023-03-25T05:13:56;94700.63;;;6.57;70.27
50696;BME280;36665;51.786;21.594;2023-03-25T05:22:19;94735.55;;;6.66;70.27
50696;BME280;36665;51.786;21.594;2023-03-25T05:30:44;94765.73;;;6.72;70.23
50696;BME280;36665;51.786;21.594;2023-03-25T05:39:07;94853.80;;;6.96;70.32
50696;BME280;36665;51.786;21.594;2023-03-25T05:47:32;94984.93;;;7.31;70.81
50696;BME280;36665;51.786;21.594;2023-03-25T05:55:56;95100.11;;;7.60;70.66
50696;BME280;36665;51.786;21.594;2023-03-25T06:04:20;95179.01;;;7.80;70.81
50696;BME280;36665;51.786;21.594;2023-03-25T06:12:46;95219.42;;;7.90;71.05
50696;BME280;36665;51.786;21.594;2023-03-25T06:21:10;95250.73;;;7.98;71.02
50696;BME280;36665;51.786;21.594;2023-03-25T06:29:33;95321.46;;;8.16;71.35
50696;BME280;36665;51.786;21.594;2023-03-25T06:37:58;95404.04;;;8.37;71.44
50696;BME280;36665;51.786;21.594;2023-03-25T06:46:36;95486.15;;;8.58;71.26
50696;BME280;36665;51.786;21.594;2023-03-25T06:55:25;95606.02;;;8.89;71.29
50696;BME280;36665;51.786;21.594;2023-03-25T07:03:48;95737.14;;;9.21;71.79
50696;BME280;36665;51.786;21.594;2023-03-25T07:12:11;95843.85;;;9.48;71.78
50696;BME280;36665;51.786;21.594;2023-03-25T07:20:34;95914.27;;;9.67;71.66
50696;BME280;36665;51.786;21.594;2023-03-25T07:28:57;95983.44;;;9.84;71.96
50696;BME280;36665;51.786;21.594;2023-03-25T07:37:20;96100.16;;;10.13;72.08
50696;BME280;36665;51.786;21.594;2023-03-25T07:45:43;96311.71;;;10.66;72.10
50696;BME280;36665;51.786;21.594;2023-03-25T07:54:06;96463.98;;;11.04;72.26
50696;BME280;36665;51.786;21.594;2023-03-25T08:02:29;96522.82;;;11.18;72.39
50696;BME280;36665;51.786;21.594;2023-03-25T08:10:53;96549.55;;;11.25;72.31
50696;BME280;36665;51.786;21.594;2023-03-25T08:19:16;96615.21;;;11.41;72.52
50696;BME280;36665;51.786;21.594;2023-03-25T08:27:39;96697.77;;;11.61;72.32
50696;BME280;36665;51.786;21.594;2023-03-25T08:36:02;96807.96;;;11.89;72.56
50696;BME280;36665;51.786;21.594;2023-03-25T08:44:25;96857.98;;;12.02;72.45
50696;BME280;36665;51.786;21.594;2023-03-25T08:52:48;96900.82;;;12.11;72.63
50696;BME280;36665;51.786;21.594;2023-03-25T09:01:15;96939.61;;;12.21;72.60
50696;BME280;36665;51.786;21.594;2023-03-25T09:09:39;96989.70;;;12.34;72.57
50696;BME280;36665;51.786;21.594;2023-03-25T09:18:03;97036.20;;;12.46;72.36
50696;BME280;36665;51.786;21.594;2023-03-25T09:26:27;97135.42;;;12.70;72.47
50696;BME280;36665;51.786;21.594;2023-03-25T09:34:50;97212.91;;;12.89;72.59
50696;BME280;36665;51.786;21.594;2023-03-25T09:51:48;97388.00;;;13.31;72.53
50696;BME280;36665;51.786;21.594;2023-03-25T10:00:18;97517.84;;;13.62;72.44
50696;BME280;36665;51.786;21.594;2023-03-25T10:17:43;97656.67;;;13.97;72.53
50696;BME280;36665;51.786;21.594;2023-03-25T10:26:20;97697.18;;;14.06;72.49
50696;BME280;36665;51.786;21.594;2023-03-25T10:34:50;97701.08;;;14.08;72.54
50696;BME280;36665;51.786;21.594;2023-03-25T10:43:26;97744.24;;;14.19;72.39
50696;BME280;36665;51.786;21.594;2023-03-25T10:51:50;97799.60;;;14.32;72.42
50696;BME280;36665;51.786;21.594;2023-03-25T11:00:19;97868.29;;;14.49;72.55
50696;BME280;36665;51.786;21.594;2023-03-25T11:17:21;98061.80;;;14.97;72.53
50696;BME280;36665;51.786;21.594;2023-03-25T11:25:48;98160.34;;;15.21;72.38
50696;BME280;36665;51.786;21.594;2023-03-25T11:34:19;98231.95;;;15.38;72.11
50696;BME280;36665;51.786;21.594;2023-03-25T11:42:44;98281.05;;;15.49;72.20
50696;BME280;36665;51.786;21.594;2023-03-25T11:51:22;98287.39;;;15.51;72.15
50696;BME280;36665;51.786;21.594;2023-03-25T11:59:48;98292.89;;;15.53;71.97
50696;BME280;36665;51.786;21.594;2023-03-25T12:08:13;98299.04;;;15.55;72.10
50696;BME280;36665;51.786;21.594;2023-03-25T12:16:47;98294.16;;;15.54;72.01
50696;BME280;36665;51.786;21.594;2023-03-25T12:33:58;98120.05;;;15.13;71.82
50696;BME280;36665;51.786;21.594;2023-03-25T12:43:03;98025.29;;;14.90;71.57
50696;BME280;36665;51.786;21.594;2023-03-25T12:51:52;98019.59;;;14.89;71.58
50696;BME280;36665;51.786;21.594;2023-03-25T13:09:05;98235.98;;;15.42;71.46
50696;BME280;36665;51.786;21.594;2023-03-25T13:17:40;98281.36;;;15.54;71.56
50696;BME280;36665;51.786;21.594;2023-03-25T13:26:11;98223.46;;;15.40;71.54
50696;BME280;36665;51.786;21.594;2023-03-25T13:34:41;97929.98;;;14.68;71.22
50696;BME280;36665;51.786;21.594;2023-03-25T13:43:13;97229.59;;;12.96;70.82
50696;BME280;36665;51.786;21.594;2023-03-25T13:51:38;96685.84;;;11.62;70.66
50696;BME280;36665;51.786;21.594;2023-03-25T14:17:19;96570.50;;;11.33;70.56
50696;BME280;36665;51.786;21.594;2023-03-25T14:25:47;96602.13;;;11.42;70.44
50696;BME280;36665;51.786;21.594;2023-03-25T14:34:12;96597.45;;;11.42;70.31
50696;BME280;36665;51.786;21.594;2023-03-25T14:42:57;96561.08;;;11.31;70.39
50696;BME280;36665;51.786;21.594;2023-03-25T14:59:50;96466.91;;;11.07;70.35
50696;BME280;36665;51.786;21.594;2023-03-25T15:08:15;96470.73;;;11.09;70.23
50696;BME280;36665;51.786;21.594;2023-03-25T15:25:15;96576.98;;;11.36;70.31
50696;BME280;36665;51.786;21.594;2023-03-25T16:00:34;96481.10;;;11.12;70.37
50696;BME280;36665;51.786;21.594;2023-03-25T16:09:00;96425.11;;;10.98;70.30
50696;BME280;36665;51.786;21.594;2023-03-25T16:17:30;96350.28;;;10.78;70.41
50696;BME280;36665;51.786;21.594;2023-03-25T16:25:54;96249.15;;;10.53;70.28
50696;BME280;36665;51.786;21.594;2023-03-25T16:34:18;96082.60;;;10.10;70.21
50696;BME280;36665;51.786;21.594;2023-03-25T16:42:42;95919.79;;;9.70;70.13
50696;BME280;36665;51.786;21.594;2023-03-25T16:51:12;95799.92;;;9.40;70.09
50696;BME280;36665;51.786;21.594;2023-03-25T16:59:36;95712.92;;;9.18;70.02
50696;BME280;36665;51.786;21.594;2023-03-25T17:08:02;95681.44;;;9.10;70.01
50696;BME280;36665;51.786;21.594;2023-03-25T17:16:29;95655.80;;;9.03;69.84
50696;BME280;36665;51.786;21.594;2023-03-25T17:24:57;95612.73;;;8.93;70.03
50696;BME280;36665;51.786;21.594;2023-03-25T17:33:34;95518.67;;;8.68;69.98
50696;BME280;36665;51.786;21.594;2023-03-25T17:42:05;95462.73;;;8.54;69.92
50696;BME280;36665;51.786;21.594;2023-03-25T17:50:29;95466.48;;;8.54;69.83
50696;BME280;36665;51.786;21.594;2023-03-25T17:59:03;95489.81;;;8.61;69.78
50696;BME280;36665;51.786;21.594;2023-03-25T18:07:27;95495.34;;;8.61;69.93
50696;BME280;36665;51.786;21.594;2023-03-25T18:15:51;95463.20;;;8.53;69.87
50696;BME280;36665;51.786;21.594;2023-03-25T18:24:15;95463.52;;;8.53;70.09
50696;BME280;36665;51.786;21.594;2023-03-25T18:32:38;95422.36;;;8.42;70.20
50696;BME280;36665;51.786;21.594;2023-03-25T18:41:01;95372.04;;;8.29;70.02
50696;BME280;36665;51.786;21.594;2023-03-25T18:49:25;95316.38;;;8.15;70.13
50696;BME280;36665;51.786;21.594;2023-03-25T18:57:49;95212.65;;;7.89;69.94
50696;BME280;36665;51.786;21.594;2023-03-25T19:06:13;95129.64;;;7.67;69.94
50696;BME280;36665;51.786;21.594;2023-03-25T19:14:36;95128.91;;;7.67;70.09
50696;BME280;36665;51.786;21.594;2023-03-25T19:23:02;95165.59;;;7.76;70.18
50696;BME280;36665;51.786;21.594;2023-03-25T19:31:25;95120.26;;;7.65;70.13
50696;BME280;36665;51.786;21.594;2023-03-25T19:39:53;95108.03;;;7.60;70.15
50696;BME280;36665;51.786;21.594;2023-03-25T19:48:16;95123.75;;;7.64;70.18
50696;BME280;36665;51.786;21.594;2023-03-25T19:56:40;95125.48;;;7.66;70.24
50696;BME280;36665;51.786;21.594;2023-03-25T20:05:04;95089.44;;;7.56;70.23
50696;BME280;36665;51.786;21.594;2023-03-25T20:13:27;95086.41;;;7.55;70.30
50696;BME280;36665;51.786;21.594;2023-03-25T20:21:51;95110.91;;;7.61;70.34
50696;BME280;36665;51.786;21.594;2023-03-25T20:30:18;95123.35;;;7.65;70.54
50696;BME280;36665;51.786;21.594;2023-03-25T20:38:41;95125.45;;;7.65;70.36
50696;BME280;36665;51.786;21.594;2023-03-25T20:47:18;95111.51;;;7.61;70.36
50696;BME280;36665;51.786;21.594;2023-03-25T20:55:41;95075.96;;;7.53;70.57
50696;BME280;36665;51.786;21.594;2023-03-25T21:04:06;95081.45;;;7.53;70.55
50696;BME280;36665;51.786;21.594;2023-03-25T21:12:29;95098.77;;;7.58;70.82
50696;BME280;36665;51.786;21.594;2023-03-25T21:21:05;95104.21;;;7.59;70.45
50696;BME280;36665;51.786;21.594;2023-03-25T21:29:28;95082.34;;;7.53;70.64
50696;BME280;36665;51.786;21.594;2023-03-25T21:37:51;95018.80;;;7.37;70.66
50696;BME280;36665;51.786;21.594;2023-03-25T21:46:14;94980.36;;;7.27;70.68
50696;BME280;36665;51.786;21.594;2023-03-25T21:54:38;94936.54;;;7.15;70.72
50696;BME280;36665;51.786;21.594;2023-03-25T22:03:05;94842.89;;;6.91;70.74
50696;BME280;36665;51.786;21.594;2023-03-25T22:11:28;94760.42;;;6.70;70.50
50696;BME280;36665;51.786;21.594;2023-03-25T22:19:51;94684.31;;;6.50;70.66
50696;BME280;36665;51.786;21.594;2023-03-25T22:28:14;94590.20;;;6.26;70.51
50696;BME280;36665;51.786;21.594;2023-03-25T22:36:40;94506.45;;;6.03;70.58
50696;BME280;36665;51.786;21.594;2023-03-25T22:45:04;94454.09;;;5.88;70.50
50696;BME280;36665;51.786;21.594;2023-03-25T22:53:27;94380.81;;;5.69;70.48
50696;BME280;36665;51.786;21.594;2023-03-25T23:01:50;94321.67;;;5.53;70.73
50696;BME280;36665;51.786;21.594;2023-03-25T23:10:13;94271.44;;;5.42;70.60
50696;BME280;36665;51.786;21.594;2023-03-25T23:18:38;94241.07;;;5.33;70.46
50696;BME280;36665;51.786;21.594;2023-03-25T23:27:05;94219.73;;;5.28;70.44
50696;BME280;36665;51.786;21.594;2023-03-25T23:35:28;94186.26;;;5.18;70.55
50696;BME280;36665;51.786;21.594;2023-03-25T23:43:54;94145.32;;;5.07;70.56
50696;BME280;36665;51.786;21.594;2023-03-25T23:52:17;94133.39;;;5.04;70.34
